createdAt,value
2019-04-01T00:01:57.411Z,7.50
2019-04-01T00:04:25.900Z,7.40
2019-04-01T00:06:54.378Z,7.40
2019-04-01T00:09:22.828Z,7.40
2019-04-01T00:11:51.808Z,7.30
2019-04-01T00:14:20.256Z,7.30
2019-04-01T00:16:48.661Z,7.20
2019-04-01T00:19:17.106Z,7.20
2019-04-01T00:21:45.665Z,7.30
2019-04-01T00:24:14.178Z,7.20
2019-04-01T00:26:42.632Z,7.10
2019-04-01T00:29:12.662Z,7.10
2019-04-01T00:31:41.077Z,7.10
2019-04-01T00:34:12.514Z,7.10
2019-04-01T00:36:41.032Z,7.10
2019-04-01T00:39:09.458Z,7.10
2019-04-01T00:41:39.557Z,7.00
2019-04-01T00:44:09.675Z,6.90
2019-04-01T00:46:38.080Z,6.80
2019-04-01T00:49:06.531Z,6.80
2019-04-01T00:51:34.969Z,6.80
2019-04-01T00:54:03.450Z,6.80
2019-04-01T00:56:32.018Z,6.80
2019-04-01T00:59:00.437Z,6.80
2019-04-01T01:01:28.879Z,6.90
2019-04-01T01:03:57.397Z,6.80
2019-04-01T01:06:25.844Z,6.80
2019-04-01T01:08:54.240Z,6.80
2019-04-01T01:11:22.984Z,6.80
2019-04-01T01:13:51.391Z,6.70
2019-04-01T01:16:19.832Z,6.70
2019-04-01T01:18:48.272Z,6.60
2019-04-01T01:21:16.684Z,6.60
2019-04-01T01:23:45.469Z,6.60
2019-04-01T01:26:14.474Z,6.60
2019-04-01T01:28:42.907Z,6.60
2019-04-01T01:31:11.308Z,6.60
2019-04-01T01:33:39.751Z,6.60
2019-04-01T01:36:08.251Z,6.50
2019-04-01T01:38:36.703Z,6.50
2019-04-01T01:41:05.384Z,6.50
2019-04-01T01:43:33.838Z,6.50
2019-04-01T01:46:02.841Z,6.50
2019-04-01T01:48:31.293Z,6.50
2019-04-01T01:50:59.735Z,6.50
2019-04-01T01:53:28.154Z,6.40
2019-04-01T01:55:56.593Z,6.30
2019-04-01T01:58:25.019Z,6.30
2019-04-01T02:00:55.096Z,6.20
2019-04-01T02:03:23.585Z,6.20
2019-04-01T02:05:52.051Z,6.20
2019-04-01T02:08:20.525Z,6.20
2019-04-01T02:10:48.979Z,6.20
2019-04-01T02:13:17.421Z,6.20
2019-04-01T02:15:45.825Z,6.20
2019-04-01T02:18:14.477Z,6.20
2019-04-01T02:20:43.024Z,6.20
2019-04-01T02:23:11.485Z,6.10
2019-04-01T02:25:39.904Z,6.10
2019-04-01T02:28:08.332Z,6.00
2019-04-01T02:30:36.781Z,6.00
2019-04-01T02:33:05.189Z,5.90
2019-04-01T02:35:33.750Z,5.80
2019-04-01T02:38:02.217Z,5.90
2019-04-01T02:40:30.632Z,5.80
2019-04-01T02:42:59.099Z,5.80
2019-04-01T02:45:27.505Z,5.80
2019-04-01T02:47:55.926Z,5.80
2019-04-01T02:50:24.430Z,5.80
2019-04-01T02:52:52.870Z,5.70
2019-04-01T02:55:21.325Z,5.70
2019-04-01T02:57:49.768Z,5.80
2019-04-01T03:00:18.536Z,5.70
2019-04-01T03:02:46.938Z,5.70
2019-04-01T03:05:15.377Z,5.60
2019-04-01T03:07:43.900Z,5.60
2019-04-01T03:10:12.486Z,5.60
2019-04-01T03:12:40.937Z,5.70
2019-04-01T03:15:09.486Z,5.70
2019-04-01T03:17:37.941Z,5.80
2019-04-01T03:20:07.488Z,5.70
2019-04-01T03:22:36.037Z,5.60
2019-04-01T03:25:05.909Z,5.60
2019-04-01T03:27:34.326Z,5.50
2019-04-01T03:30:02.803Z,5.40
2019-04-01T03:32:31.328Z,5.40
2019-04-01T03:34:59.771Z,5.50
2019-04-01T03:37:28.338Z,5.40
2019-04-01T03:39:56.781Z,5.50
2019-04-01T03:42:25.190Z,5.40
2019-04-01T03:44:55.331Z,5.30
2019-04-01T03:47:23.849Z,5.20
2019-04-01T03:49:52.275Z,5.20
2019-04-01T03:52:20.795Z,5.20
2019-04-01T03:54:49.232Z,5.20
2019-04-01T03:57:17.732Z,5.30
2019-04-01T03:59:46.149Z,5.30
2019-04-01T04:02:14.589Z,5.20
2019-04-01T04:04:42.982Z,5.10
2019-04-01T04:07:11.414Z,5.10
2019-04-01T04:09:39.855Z,5.20
2019-04-01T04:12:08.299Z,5.10
2019-04-01T04:14:36.706Z,5.20
2019-04-01T04:17:05.187Z,5.10
2019-04-01T04:19:33.601Z,5.20
2019-04-01T04:22:02.029Z,5.10
2019-04-01T04:24:30.466Z,5.00
2019-04-01T04:26:58.931Z,5.00
2019-04-01T04:29:27.587Z,5.10
2019-04-01T04:31:56.057Z,5.30
2019-04-01T04:34:24.491Z,5.30
2019-04-01T04:36:52.911Z,5.10
2019-04-01T04:39:21.343Z,5.00
2019-04-01T04:41:49.755Z,4.90
2019-04-01T04:44:18.211Z,4.80
2019-04-01T04:46:46.616Z,4.70
2019-04-01T04:49:16.527Z,4.80
2019-04-01T04:51:44.940Z,4.90
2019-04-01T04:54:13.400Z,4.70
2019-04-01T04:56:41.923Z,4.70
2019-04-01T04:59:10.337Z,4.80
2019-04-01T05:01:38.963Z,4.80
2019-04-01T05:04:07.453Z,4.70
2019-04-01T05:06:35.924Z,4.70
2019-04-01T05:09:06.209Z,4.80
2019-04-01T05:11:34.653Z,4.70
2019-04-01T05:14:03.059Z,4.70
2019-04-01T05:16:31.486Z,4.70
2019-04-01T05:18:59.911Z,4.80
2019-04-01T05:21:28.671Z,4.80
2019-04-01T05:23:57.455Z,4.80
2019-04-01T05:26:26.504Z,4.80
2019-04-01T05:28:55.075Z,4.80
2019-04-01T05:31:24.846Z,4.80
2019-04-01T05:33:55.944Z,4.80
2019-04-01T05:36:25.488Z,4.90
2019-04-01T05:38:53.951Z,5.00
2019-04-01T05:41:22.531Z,5.10
2019-04-01T05:43:51.509Z,5.40
2019-04-01T05:46:20.013Z,5.70
2019-04-01T05:48:49.578Z,5.70
2019-04-01T05:51:18.119Z,5.70
2019-04-01T05:53:47.089Z,5.90
2019-04-01T05:56:15.617Z,5.90
2019-04-01T05:58:44.043Z,5.80
2019-04-01T06:01:17.226Z,6.00
2019-04-01T06:03:45.850Z,6.00
2019-04-01T06:06:17.322Z,5.90
2019-04-01T06:08:48.546Z,6.10
2019-04-01T06:11:23.178Z,6.10
2019-04-01T06:13:56.515Z,6.10
2019-04-01T06:16:29.631Z,6.20
2019-04-01T06:18:59.179Z,6.40
2019-04-01T06:21:28.109Z,6.50
2019-04-01T06:23:59.007Z,6.40
2019-04-01T06:26:31.092Z,6.50
2019-04-01T06:29:02.131Z,6.80
2019-04-01T06:31:31.721Z,6.60
2019-04-01T06:34:00.360Z,6.50
2019-04-01T06:36:32.735Z,6.50
2019-04-01T06:39:05.851Z,6.80
2019-04-01T06:41:36.863Z,6.90
2019-04-01T06:44:05.077Z,7.00
2019-04-01T06:46:34.227Z,6.90
2019-04-01T06:49:06.171Z,7.40
2019-04-01T06:51:34.866Z,7.40
2019-04-01T06:54:03.437Z,7.30
2019-04-01T06:56:35.095Z,7.50
2019-04-01T06:59:04.892Z,7.40
2019-04-01T07:01:33.735Z,7.70
2019-04-01T07:04:02.355Z,8.00
2019-04-01T07:06:34.482Z,7.80
2019-04-01T07:09:06.154Z,7.80
2019-04-01T07:11:36.002Z,7.80
2019-04-01T07:14:05.404Z,7.90
2019-04-01T07:16:40.008Z,7.90
2019-04-01T07:19:09.871Z,8.10
2019-04-01T07:21:38.879Z,8.00
2019-04-01T07:24:07.719Z,8.10
2019-04-01T07:26:38.644Z,8.50
2019-04-01T07:29:11.894Z,9.40
2019-04-01T07:31:45.081Z,9.50
2019-04-01T07:34:14.869Z,9.00
2019-04-01T07:36:43.591Z,9.30
2019-04-01T07:39:13.179Z,9.40
2019-04-01T07:41:43.361Z,10.00
2019-04-01T07:44:12.408Z,10.00
2019-04-01T07:46:40.986Z,10.20
2019-04-01T07:49:14.172Z,10.50
2019-04-01T07:51:47.716Z,11.40
2019-04-01T07:54:18.704Z,12.30
2019-04-01T07:56:47.660Z,12.40
2019-04-01T07:59:16.988Z,13.10
2019-04-01T08:01:48.275Z,13.80
2019-04-01T08:04:21.455Z,13.50
2019-04-01T08:06:50.169Z,13.60
2019-04-01T08:09:18.861Z,13.90
2019-04-01T08:11:51.621Z,13.90
2019-04-01T08:14:23.141Z,15.40
2019-04-01T08:16:58.637Z,15.30
2019-04-01T08:19:29.658Z,14.70
2019-04-01T08:21:58.600Z,14.70
2019-04-01T08:24:27.100Z,14.90
2019-04-01T08:26:58.448Z,13.90
2019-04-01T08:29:30.794Z,13.90
2019-04-01T08:31:58.162Z,13.70
2019-04-01T08:34:27.085Z,13.80
2019-04-01T08:37:02.436Z,14.30
2019-04-01T08:39:33.519Z,14.60
2019-04-01T08:42:06.706Z,14.50
2019-04-01T08:44:35.242Z,14.20
2019-04-01T08:47:03.673Z,14.10
2019-04-01T08:49:34.443Z,13.70
2019-04-01T08:52:04.900Z,12.20
2019-04-01T08:54:35.335Z,11.80
2019-04-01T08:57:04.357Z,11.30
2019-04-01T08:59:35.175Z,11.00
2019-04-01T09:02:18.080Z,11.00
2019-04-01T09:04:45.568Z,10.90
2019-04-01T09:07:17.459Z,10.70
2019-04-01T09:09:48.816Z,10.90
2019-04-01T09:12:18.321Z,10.80
2019-04-01T09:14:47.610Z,10.90
2019-04-01T09:17:18.272Z,11.10
2019-04-01T09:19:48.093Z,11.00
2019-04-01T09:22:16.516Z,11.10
2019-04-01T09:24:46.959Z,10.90
2019-04-01T09:27:18.950Z,11.20
2019-04-01T09:29:47.382Z,12.10
2019-04-01T09:32:15.922Z,13.20
2019-04-01T09:34:45.985Z,13.60
2019-04-01T09:37:14.749Z,13.90
2019-04-01T09:39:43.573Z,13.50
2019-04-01T09:42:17.872Z,12.70
2019-04-01T09:44:48.935Z,13.00
2019-04-01T09:47:21.831Z,12.20
2019-04-01T09:49:55.148Z,11.80
2019-04-01T09:52:30.169Z,11.70
2019-04-01T09:55:15.343Z,11.60
2019-04-01T09:57:43.799Z,11.50
2019-04-01T10:00:14.753Z,11.40
2019-04-01T10:02:46.559Z,11.40
2019-04-01T10:05:17.882Z,11.50
2019-04-01T10:07:46.836Z,11.50
2019-04-01T10:10:15.737Z,11.60
2019-04-01T10:12:48.711Z,11.70
2019-04-01T10:15:21.611Z,11.90
2019-04-01T10:17:52.727Z,11.90
2019-04-01T10:20:21.235Z,11.90
2019-04-01T10:22:50.056Z,11.90
2019-04-01T10:25:23.349Z,12.00
2019-04-01T10:27:53.613Z,12.10
2019-04-01T10:30:22.889Z,12.20
2019-04-01T10:32:51.310Z,12.50
2019-04-01T10:35:23.951Z,13.10
2019-04-01T10:37:57.531Z,13.60
2019-04-01T10:40:27.122Z,14.30
2019-04-01T10:42:55.932Z,15.20
2019-04-01T10:45:25.494Z,15.20
2019-04-01T10:47:56.904Z,15.20
2019-04-01T10:50:25.711Z,15.10
2019-04-01T10:52:54.238Z,15.50
2019-04-01T10:55:27.622Z,15.40
2019-04-01T10:57:59.604Z,15.40
2019-04-01T11:00:33.606Z,16.20
2019-04-01T11:03:05.888Z,15.70
2019-04-01T11:05:32.622Z,15.60
2019-04-01T11:08:02.424Z,15.70
2019-04-01T11:10:34.462Z,15.50
2019-04-01T11:13:03.477Z,15.70
2019-04-01T11:15:32.189Z,15.00
2019-04-01T11:18:02.888Z,16.20
2019-04-01T11:20:36.892Z,15.60
2019-04-01T11:23:09.762Z,16.10
2019-04-01T11:25:39.729Z,15.50
2019-04-01T11:28:08.480Z,15.40
2019-04-01T11:30:38.594Z,15.90
2019-04-01T11:33:11.248Z,16.00
2019-04-01T11:35:42.250Z,15.80
2019-04-01T11:38:11.162Z,15.60
2019-04-01T11:40:39.734Z,16.20
2019-04-01T11:43:10.293Z,16.00
2019-04-01T11:45:39.005Z,16.00
2019-04-01T11:48:07.607Z,16.00
2019-04-01T11:50:40.382Z,16.00
2019-04-01T11:53:12.256Z,16.40
2019-04-01T11:55:41.505Z,16.10
2019-04-01T11:58:10.892Z,15.90
2019-04-01T12:00:40.831Z,16.50
2019-04-01T12:03:14.158Z,16.60
2019-04-01T12:05:43.018Z,16.20
2019-04-01T12:08:11.802Z,16.30
2019-04-01T12:10:42.773Z,16.10
2019-04-01T12:13:15.008Z,15.60
2019-04-01T12:15:49.247Z,15.60
2019-04-01T12:18:13.695Z,15.50
2019-04-01T12:20:43.768Z,15.30
2019-04-01T12:23:13.726Z,15.20
2019-04-01T12:25:42.907Z,14.90
2019-04-01T12:28:11.408Z,14.90
2019-04-01T12:30:44.294Z,14.90
2019-04-01T12:33:15.282Z,15.00
2019-04-01T12:35:51.003Z,15.00
2019-04-01T12:38:19.521Z,15.20
2019-04-01T12:40:49.092Z,15.40
2019-04-01T12:43:19.529Z,15.40
2019-04-01T12:45:51.186Z,15.20
2019-04-01T12:48:19.220Z,15.30
2019-04-01T12:50:47.649Z,15.50
2019-04-01T12:53:21.612Z,15.30
2019-04-01T12:55:54.637Z,15.30
2019-04-01T12:58:26.057Z,15.50
2019-04-01T13:00:54.749Z,15.70
2019-04-01T13:03:23.194Z,15.50
2019-04-01T13:05:54.006Z,15.40
2019-04-01T13:08:28.575Z,15.50
2019-04-01T13:10:57.889Z,15.60
2019-04-01T13:13:26.324Z,15.90
2019-04-01T13:15:57.030Z,15.70
2019-04-01T13:18:28.660Z,15.50
2019-04-01T13:20:57.082Z,15.60
2019-04-01T13:23:25.562Z,15.60
2019-04-01T13:25:58.469Z,15.80
2019-04-01T13:28:29.936Z,15.90
2019-04-01T13:31:04.095Z,16.10
2019-04-01T13:33:28.582Z,16.10
2019-04-01T13:35:58.588Z,16.20
2019-04-01T13:38:30.166Z,16.10
2019-04-01T13:40:58.689Z,16.00
2019-04-01T13:43:27.137Z,15.90
2019-04-01T13:45:59.717Z,16.00
2019-04-01T13:48:31.643Z,16.10
2019-04-01T13:51:01.593Z,16.20
2019-04-01T13:53:30.169Z,16.20
2019-04-01T13:56:01.647Z,16.20
2019-04-01T13:58:34.291Z,16.30
2019-04-01T14:01:06.734Z,16.40
2019-04-01T14:03:35.441Z,16.20
2019-04-01T14:06:04.317Z,16.20
2019-04-01T14:08:35.090Z,16.20
2019-04-01T14:11:07.430Z,16.30
2019-04-01T14:13:35.864Z,16.30
2019-04-01T14:16:04.383Z,16.40
2019-04-01T14:18:35.228Z,16.60
2019-04-01T14:21:15.914Z,16.50
2019-04-01T14:23:36.596Z,16.50
2019-04-01T14:26:05.049Z,16.60
2019-04-01T14:28:38.159Z,16.60
2019-04-01T14:31:10.842Z,16.60
2019-04-01T14:33:40.733Z,16.50
2019-04-01T14:36:12.489Z,16.50
2019-04-01T14:38:41.286Z,16.70
2019-04-01T14:41:15.692Z,16.70
2019-04-01T14:43:47.081Z,16.70
2019-04-01T14:46:18.439Z,16.70
2019-04-01T14:48:47.314Z,16.70
2019-04-01T14:51:16.589Z,16.70
2019-04-01T14:53:49.411Z,16.70
2019-04-01T14:56:21.230Z,16.60
2019-04-01T14:58:51.041Z,16.60
2019-04-01T15:01:19.603Z,16.80
2019-04-01T15:03:48.764Z,16.70
2019-04-01T15:06:21.011Z,16.70
2019-04-01T15:08:49.683Z,16.50
2019-04-01T15:11:18.461Z,16.70
2019-04-01T15:13:49.954Z,16.80
2019-04-01T15:16:20.659Z,16.80
2019-04-01T15:18:49.218Z,16.60
2019-04-01T15:21:17.686Z,16.60
2019-04-01T15:23:53.107Z,16.80
2019-04-01T15:26:22.811Z,16.80
2019-04-01T15:28:51.330Z,16.90
2019-04-01T15:31:19.808Z,16.90
2019-04-01T15:33:48.297Z,16.90
2019-04-01T15:36:16.744Z,16.90
2019-04-01T15:38:45.220Z,16.70
2019-04-01T15:41:13.751Z,16.60
2019-04-01T15:43:42.186Z,16.60
2019-04-01T15:46:10.624Z,16.60
2019-04-01T15:48:39.076Z,16.80
2019-04-01T15:51:07.947Z,16.80
2019-04-01T15:53:36.890Z,16.80
2019-04-01T15:56:05.305Z,16.80
2019-04-01T15:58:33.789Z,16.90
2019-04-01T16:01:02.370Z,17.00
2019-04-01T16:03:31.680Z,16.80
2019-04-01T16:06:00.126Z,16.80
2019-04-01T16:08:28.646Z,16.80
2019-04-01T16:10:57.102Z,16.70
2019-04-01T16:13:25.534Z,16.70
2019-04-01T16:15:53.994Z,16.60
2019-04-01T16:18:22.454Z,16.80
2019-04-01T16:20:50.860Z,16.80
2019-04-01T16:23:19.428Z,16.80
2019-04-01T16:25:48.088Z,16.70
2019-04-01T16:28:16.526Z,16.70
2019-04-01T16:30:45.018Z,16.70
2019-04-01T16:33:13.468Z,16.70
2019-04-01T16:35:41.890Z,16.60
2019-04-01T16:38:10.392Z,16.50
2019-04-01T16:40:38.842Z,16.50
2019-04-01T16:43:07.327Z,16.50
2019-04-01T16:45:35.836Z,16.60
2019-04-01T16:48:04.433Z,16.60
2019-04-01T16:50:33.521Z,16.60
2019-04-01T16:53:02.978Z,16.50
2019-04-01T16:55:31.516Z,16.50
2019-04-01T16:57:59.952Z,16.50
2019-04-01T17:00:28.440Z,16.50
2019-04-01T17:02:56.902Z,16.50
2019-04-01T17:05:31.212Z,16.40
2019-04-01T17:07:59.648Z,16.30
2019-04-01T17:10:28.287Z,16.30
2019-04-01T17:12:56.730Z,16.20
2019-04-01T17:15:25.435Z,16.10
2019-04-01T17:17:53.880Z,16.10
2019-04-01T17:20:22.318Z,16.20
2019-04-01T17:22:50.772Z,16.20
2019-04-01T17:25:19.197Z,16.10
2019-04-01T17:27:47.636Z,16.20
2019-04-01T17:30:16.434Z,16.00
2019-04-01T17:32:44.918Z,15.90
2019-04-01T17:35:13.781Z,15.70
2019-04-01T17:37:42.310Z,15.90
2019-04-01T17:40:12.807Z,15.80
2019-04-01T17:42:41.372Z,15.60
2019-04-01T17:45:21.622Z,15.70
2019-04-01T17:47:50.161Z,15.60
2019-04-01T17:50:18.961Z,15.60
2019-04-01T17:52:47.654Z,15.50
2019-04-01T17:55:17.203Z,15.40
2019-04-01T17:57:46.244Z,15.30
2019-04-01T18:00:31.248Z,15.30
2019-04-01T18:03:00.015Z,15.30
2019-04-01T18:05:28.475Z,15.10
2019-04-01T18:07:56.933Z,15.00
2019-04-01T18:10:25.649Z,14.90
2019-04-01T18:12:54.190Z,14.90
2019-04-01T18:15:22.960Z,15.00
2019-04-01T18:17:51.849Z,14.90
2019-04-01T18:20:20.552Z,14.70
2019-04-01T18:22:49.245Z,14.70
2019-04-01T18:25:17.841Z,14.60
2019-04-01T18:27:46.301Z,14.50
2019-04-01T18:30:15.082Z,14.40
2019-04-01T18:32:43.516Z,14.20
2019-04-01T18:35:12.481Z,14.20
2019-04-01T18:37:40.919Z,14.10
2019-04-01T18:40:09.682Z,14.10
2019-04-01T18:42:38.124Z,14.10
2019-04-01T18:45:07.897Z,14.10
2019-04-01T18:47:38.902Z,14.00
2019-04-01T18:50:07.047Z,13.90
2019-04-01T18:52:35.465Z,13.80
2019-04-01T18:55:07.740Z,13.70
2019-04-01T18:57:35.933Z,13.50
2019-04-01T19:00:07.200Z,13.40
2019-04-01T19:02:35.609Z,13.30
2019-04-01T19:05:04.413Z,13.20
2019-04-01T19:07:32.828Z,13.10
2019-04-01T19:10:06.499Z,13.00
2019-04-01T19:12:31.439Z,13.00
2019-04-01T19:15:02.388Z,12.90
2019-04-01T19:17:30.137Z,12.80
2019-04-01T19:19:58.721Z,12.60
2019-04-01T19:22:27.178Z,12.60
2019-04-01T19:24:56.929Z,12.50
2019-04-01T19:27:25.474Z,12.50
2019-04-01T19:29:53.909Z,12.40
2019-04-01T19:32:22.525Z,12.30
2019-04-01T19:34:51.035Z,12.30
2019-04-01T19:37:19.577Z,12.20
2019-04-01T19:39:48.033Z,12.20
2019-04-01T19:42:17.970Z,12.10
2019-04-01T19:44:46.584Z,12.10
2019-04-01T19:47:15.023Z,12.10
2019-04-01T19:49:44.060Z,12.00
2019-04-01T19:52:12.816Z,12.00
2019-04-01T19:54:41.273Z,11.90
2019-04-01T19:57:09.861Z,11.80
2019-04-01T19:59:38.390Z,11.60
2019-04-01T20:02:09.358Z,11.60
2019-04-01T20:04:37.044Z,11.60
2019-04-01T20:07:05.461Z,11.60
2019-04-01T20:09:33.895Z,11.50
2019-04-01T20:12:02.318Z,11.40
2019-04-01T20:14:30.763Z,11.40
2019-04-01T20:17:01.924Z,11.40
2019-04-01T20:19:29.520Z,11.60
2019-04-01T20:21:57.998Z,11.60
2019-04-01T20:24:26.435Z,11.50
2019-04-01T20:26:54.875Z,11.40
2019-04-01T20:29:23.312Z,11.30
2019-04-01T20:31:51.764Z,11.20
2019-04-01T20:34:21.412Z,11.20
2019-04-01T20:36:50.425Z,11.10
2019-04-01T20:39:18.881Z,11.10
2019-04-01T20:41:48.216Z,11.00
2019-04-01T20:44:17.521Z,10.90
2019-04-01T20:46:45.929Z,11.00
2019-04-01T20:49:14.381Z,10.90
2019-04-01T20:51:42.861Z,10.90
2019-04-01T20:54:11.297Z,11.00
2019-04-01T20:56:39.779Z,11.00
2019-04-01T20:59:10.189Z,10.90
2019-04-01T21:01:38.441Z,10.80
2019-04-01T21:04:07.804Z,10.80
2019-04-01T21:06:36.233Z,10.90
2019-04-01T21:09:07.871Z,11.00
2019-04-01T21:11:36.309Z,11.10
2019-04-01T21:14:05.286Z,11.30
2019-04-01T21:16:33.704Z,11.40
2019-04-01T21:19:02.147Z,11.50
2019-04-01T21:21:30.601Z,11.50
2019-04-01T21:23:59.890Z,11.50
2019-04-01T21:26:28.545Z,11.50
2019-04-01T21:28:57.639Z,11.40
2019-04-01T21:31:26.093Z,11.50
2019-04-01T21:33:54.552Z,11.40
2019-04-01T21:36:22.990Z,11.30
2019-04-01T21:38:51.420Z,11.20
2019-04-01T21:41:20.522Z,11.10
2019-04-01T21:43:49.489Z,11.10
2019-04-01T21:46:17.978Z,11.00
2019-04-01T21:48:46.422Z,11.10
2019-04-01T21:51:14.888Z,11.00
2019-04-01T21:53:43.367Z,10.90
2019-04-01T21:56:11.807Z,10.90
2019-04-01T21:58:40.483Z,10.90
2019-04-01T22:01:09.213Z,10.90
2019-04-01T22:03:37.661Z,10.70
2019-04-01T22:06:06.120Z,10.60
2019-04-01T22:08:35.186Z,10.70
2019-04-01T22:11:04.884Z,10.60
2019-04-01T22:13:33.351Z,10.60
2019-04-01T22:16:01.816Z,10.40
2019-04-01T22:18:32.845Z,10.40
2019-04-01T22:21:00.412Z,10.30
2019-04-01T22:23:28.885Z,10.30
2019-04-01T22:25:58.900Z,10.30
2019-04-01T22:28:27.554Z,10.20
2019-04-01T22:30:55.979Z,10.10
2019-04-01T22:33:24.397Z,10.10
2019-04-01T22:35:52.849Z,9.90
2019-04-01T22:38:25.339Z,9.80
2019-04-01T22:40:51.536Z,9.80
2019-04-01T22:43:19.989Z,9.90
2019-04-01T22:45:49.281Z,9.90
2019-04-01T22:48:18.045Z,9.90
2019-04-01T22:50:46.489Z,9.80
2019-04-01T22:53:14.915Z,9.70
2019-04-01T22:55:43.354Z,9.70
2019-04-01T22:58:11.802Z,9.70
2019-04-01T23:00:40.213Z,9.60
2019-04-01T23:03:08.670Z,9.60
2019-04-01T23:05:37.359Z,9.50
2019-04-01T23:08:06.279Z,9.50
2019-04-01T23:10:34.885Z,9.70
2019-04-01T23:13:03.407Z,9.80
2019-04-01T23:15:31.813Z,9.70
2019-04-01T23:18:00.273Z,9.50
2019-04-01T23:20:28.711Z,9.50
2019-04-01T23:22:57.987Z,9.50
2019-04-01T23:25:26.858Z,9.50
2019-04-01T23:27:55.481Z,9.50
2019-04-01T23:30:24.471Z,9.40
2019-04-01T23:32:52.892Z,9.30
2019-04-01T23:35:21.339Z,9.30
2019-04-01T23:37:49.832Z,9.30
2019-04-01T23:40:18.273Z,9.30
2019-04-01T23:42:46.763Z,9.30
2019-04-01T23:45:15.342Z,9.20
2019-04-01T23:47:45.234Z,9.20
2019-04-01T23:50:14.100Z,9.20
2019-04-01T23:52:42.516Z,9.20
2019-04-01T23:55:11.027Z,9.20
2019-04-01T23:57:39.431Z,9.10
